createdAt,value
2018-11-21T00:00:23.213Z,51.60
2018-11-21T00:02:51.282Z,45.08
2018-11-21T00:05:19.779Z,48.98
2018-11-21T00:07:47.888Z,56.70
2018-11-21T00:10:16.002Z,52.23
2018-11-21T00:12:47.222Z,67.35
2018-11-21T00:15:15.363Z,49.85
2018-11-21T00:17:43.449Z,58.08
2018-11-21T00:20:11.570Z,51.05
2018-11-21T00:22:40.300Z,54.42
2018-11-21T00:25:08.627Z,52.05
2018-11-21T00:27:36.976Z,52.00
2018-11-21T00:30:07.990Z,49.53
2018-11-21T00:32:36.053Z,48.98
2018-11-21T00:35:05.315Z,61.48
2018-11-21T00:37:37.781Z,60.85
2018-11-21T00:40:10.642Z,49.67
2018-11-21T00:42:39.018Z,44.83
2018-11-21T00:45:08.063Z,48.92
2018-11-21T00:47:36.127Z,60.50
2018-11-21T00:50:04.720Z,56.10
2018-11-21T00:52:33.069Z,65.37
2018-11-21T00:55:01.171Z,71.90
2018-11-21T00:57:29.497Z,63.85
2018-11-21T00:59:58.154Z,48.42
2018-11-21T01:02:26.242Z,71.17
2018-11-21T01:04:54.457Z,50.15
2018-11-21T01:07:22.863Z,56.00
2018-11-21T01:09:50.952Z,57.90
2018-11-21T01:12:19.082Z,48.65
2018-11-21T01:14:47.464Z,57.75
2018-11-21T01:17:15.837Z,48.30
2018-11-21T01:19:43.935Z,57.27
2018-11-21T01:22:12.024Z,60.30
2018-11-21T01:24:40.149Z,49.65
2018-11-21T01:27:09.049Z,52.33
2018-11-21T01:29:37.160Z,62.15
2018-11-21T01:32:05.236Z,52.08
2018-11-21T01:34:33.339Z,63.98
2018-11-21T01:37:01.414Z,60.75
2018-11-21T01:39:29.816Z,63.30
2018-11-21T01:41:57.894Z,59.88
2018-11-21T01:44:26.269Z,49.30
2018-11-21T01:46:54.342Z,46.08
2018-11-21T01:49:22.439Z,55.48
2018-11-21T01:51:50.498Z,49.10
2018-11-21T01:54:18.569Z,50.00
2018-11-21T01:56:46.669Z,65.87
2018-11-21T01:59:14.866Z,52.13
2018-11-21T02:01:42.957Z,53.15
2018-11-21T02:04:11.046Z,58.08
2018-11-21T02:06:39.552Z,61.88
2018-11-21T02:09:09.357Z,58.50
2018-11-21T02:11:37.515Z,56.28
2018-11-21T02:14:05.872Z,57.83
2018-11-21T02:16:33.958Z,52.58
2018-11-21T02:19:02.111Z,50.55
2018-11-21T02:21:31.169Z,56.58
2018-11-21T02:23:59.303Z,50.92
2018-11-21T02:26:27.628Z,48.33
2018-11-21T02:28:55.734Z,47.73
2018-11-21T02:31:24.154Z,53.28
2018-11-21T02:33:52.230Z,60.43
2018-11-21T02:36:20.326Z,49.50
2018-11-21T02:38:48.417Z,64.22
2018-11-21T02:41:16.507Z,74.82
2018-11-21T02:43:44.574Z,42.30
2018-11-21T02:46:12.663Z,61.25
2018-11-21T02:48:40.789Z,52.10
2018-11-21T02:51:08.891Z,51.85
2018-11-21T02:53:37.062Z,57.88
2018-11-21T02:56:05.189Z,55.92
2018-11-21T02:58:33.515Z,63.60
2018-11-21T03:01:01.907Z,59.48
2018-11-21T03:03:30.905Z,56.48
2018-11-21T03:05:59.062Z,54.85
2018-11-21T03:08:28.526Z,57.00
2018-11-21T03:10:56.600Z,45.48
2018-11-21T03:13:28.346Z,56.65
2018-11-21T03:15:52.816Z,68.00
2018-11-21T03:18:20.888Z,54.85
2018-11-21T03:20:48.949Z,62.23
2018-11-21T03:23:17.027Z,65.55
2018-11-21T03:25:45.102Z,64.25
2018-11-21T03:28:13.466Z,62.30
2018-11-21T03:30:41.530Z,58.15
2018-11-21T03:33:09.611Z,63.35
2018-11-21T03:35:38.152Z,74.53
2018-11-21T03:38:06.205Z,55.98
2018-11-21T03:40:34.338Z,65.80
2018-11-21T03:43:02.453Z,67.20
2018-11-21T03:45:30.583Z,68.70
2018-11-21T03:47:58.723Z,58.23
2018-11-21T03:50:26.929Z,55.65
2018-11-21T03:52:55.350Z,56.08
2018-11-21T03:55:23.604Z,76.55
2018-11-21T03:57:51.815Z,56.70
2018-11-21T04:00:19.994Z,63.58
2018-11-21T04:02:48.334Z,63.00
2018-11-21T04:05:16.698Z,61.40
2018-11-21T04:07:44.937Z,76.75
2018-11-21T04:10:13.901Z,60.08
2018-11-21T04:12:42.356Z,61.37
2018-11-21T04:15:12.323Z,63.00
2018-11-21T04:17:40.520Z,63.33
2018-11-21T04:20:08.959Z,71.25
2018-11-21T04:22:37.727Z,68.33
2018-11-21T04:25:07.533Z,52.88
2018-11-21T04:27:35.849Z,72.08
2018-11-21T04:30:04.705Z,51.15
2018-11-21T04:32:32.958Z,60.70
2018-11-21T04:35:01.277Z,60.10
2018-11-21T04:37:29.588Z,75.45
2018-11-21T04:39:57.794Z,62.13
2018-11-21T04:42:26.019Z,58.55
2018-11-21T04:44:54.406Z,63.35
2018-11-21T04:47:22.661Z,51.02
2018-11-21T04:49:51.032Z,64.30
2018-11-21T04:52:19.682Z,62.15
2018-11-21T04:54:48.861Z,61.83
2018-11-21T04:57:17.505Z,61.92
2018-11-21T04:59:48.618Z,68.10
2018-11-21T05:02:17.643Z,67.47
2018-11-21T05:04:46.045Z,72.75
2018-11-21T05:07:14.689Z,62.17
2018-11-21T05:09:43.425Z,66.30
2018-11-21T05:12:11.995Z,58.17
2018-11-21T05:14:40.215Z,51.10
2018-11-21T05:17:08.665Z,63.95
2018-11-21T05:19:37.259Z,69.10
2018-11-21T05:22:05.692Z,63.87
2018-11-21T05:24:34.261Z,53.60
2018-11-21T05:27:02.759Z,64.25
2018-11-21T05:29:31.724Z,64.32
2018-11-21T05:32:00.384Z,60.98
2018-11-21T05:34:28.579Z,77.72
2018-11-21T05:36:57.351Z,67.00
2018-11-21T05:39:26.250Z,63.08
2018-11-21T05:41:54.717Z,64.30
2018-11-21T05:44:23.126Z,61.70
2018-11-21T05:46:53.758Z,51.92
2018-11-21T05:49:20.613Z,65.35
2018-11-21T05:51:49.133Z,69.32
2018-11-21T05:54:17.703Z,66.00
2018-11-21T05:56:46.115Z,62.20
2018-11-21T05:59:14.635Z,75.52
2018-11-21T06:01:43.262Z,63.80
2018-11-21T06:04:11.420Z,75.17
2018-11-21T06:06:59.057Z,69.40
2018-11-21T06:09:27.244Z,80.83
2018-11-21T06:11:56.103Z,85.15
2018-11-21T06:14:24.360Z,74.50
2018-11-21T06:16:53.090Z,83.42
2018-11-21T06:19:21.229Z,63.92
2018-11-21T06:21:49.405Z,84.28
2018-11-21T06:24:18.169Z,77.60
2018-11-21T06:26:53.793Z,82.53
2018-11-21T06:29:22.550Z,96.50
2018-11-21T06:31:51.028Z,74.30
2018-11-21T06:34:20.317Z,68.85
2018-11-21T06:36:48.581Z,65.90
2018-11-21T06:39:18.196Z,78.60
2018-11-21T06:41:46.754Z,70.57
2018-11-21T06:44:15.034Z,81.95
2018-11-21T06:46:43.742Z,84.58
2018-11-21T06:49:13.595Z,70.95
2018-11-21T06:51:45.618Z,65.00
2018-11-21T06:54:14.504Z,61.53
2018-11-21T06:56:42.988Z,57.78
2018-11-21T06:59:11.595Z,76.85
2018-11-21T07:01:40.626Z,63.68
2018-11-21T07:04:09.055Z,72.80
2018-11-21T07:06:37.237Z,71.77
2018-11-21T07:09:09.308Z,66.17
2018-11-21T07:11:37.903Z,88.42
2018-11-21T07:14:07.422Z,73.00
2018-11-21T07:16:37.306Z,91.35
2018-11-21T07:19:11.898Z,72.85
2018-11-21T07:21:40.187Z,74.55
2018-11-21T07:24:08.852Z,62.03
2018-11-21T07:26:37.638Z,73.75
2018-11-21T07:29:06.269Z,75.12
2018-11-21T07:31:34.901Z,85.87
2018-11-21T07:34:03.315Z,80.97
2018-11-21T07:36:32.243Z,77.90
2018-11-21T07:39:00.385Z,82.20
2018-11-21T07:41:29.227Z,63.35
2018-11-21T07:43:57.680Z,84.87
2018-11-21T07:46:26.085Z,68.28
2018-11-21T07:48:54.316Z,72.70
2018-11-21T07:51:22.456Z,71.57
2018-11-21T07:53:50.526Z,104.85
2018-11-21T07:57:06.710Z,82.30
2018-11-21T07:59:34.821Z,86.05
2018-11-21T08:02:09.513Z,67.15
2018-11-21T08:05:00.025Z,58.65
2018-11-21T08:07:46.253Z,80.87
2018-11-21T08:10:33.228Z,74.82
2018-11-21T08:13:24.704Z,74.47
2018-11-21T08:16:24.642Z,78.30
2018-11-21T08:19:05.020Z,70.55
2018-11-21T08:22:07.571Z,91.80
2018-11-21T08:24:53.461Z,73.67
2018-11-21T08:27:40.726Z,75.08
2018-11-21T08:30:09.365Z,72.87
2018-11-21T08:32:38.754Z,88.03
2018-11-21T08:35:07.977Z,97.47
2018-11-21T08:37:36.741Z,80.53
2018-11-21T08:40:06.270Z,71.10
2018-11-21T08:42:34.870Z,80.50
2018-11-21T08:45:03.328Z,58.98
2018-11-21T08:47:31.597Z,64.17
2018-11-21T08:49:59.858Z,69.05
2018-11-21T08:52:28.273Z,63.30
2018-11-21T08:54:56.319Z,64.70
2018-11-21T08:57:24.485Z,52.53
2018-11-21T08:59:52.937Z,81.87
2018-11-21T09:02:23.610Z,66.62
2018-11-21T09:04:52.436Z,78.55
2018-11-21T09:07:20.843Z,67.65
2018-11-21T09:09:49.155Z,74.92
2018-11-21T09:12:17.760Z,64.72
2018-11-21T09:14:46.706Z,89.17
2018-11-21T09:17:15.057Z,72.80
2018-11-21T09:19:43.580Z,75.28
2018-11-21T09:22:12.141Z,79.82
2018-11-21T09:24:40.540Z,64.60
2018-11-21T09:27:09.753Z,79.70
2018-11-21T09:29:38.447Z,61.23
2018-11-21T09:32:06.705Z,77.75
2018-11-21T09:34:35.142Z,74.95
2018-11-21T09:37:03.599Z,79.07
2018-11-21T09:39:32.576Z,85.95
2018-11-21T09:42:00.972Z,61.58
2018-11-21T09:44:29.439Z,73.97
2018-11-21T09:46:58.025Z,59.23
2018-11-21T09:49:26.380Z,78.22
2018-11-21T09:51:54.715Z,81.00
2018-11-21T09:54:23.332Z,84.52
2018-11-21T09:56:51.518Z,68.60
2018-11-21T09:59:19.895Z,65.12
2018-11-21T10:02:25.113Z,78.90
2018-11-21T10:04:53.294Z,68.33
2018-11-21T10:07:21.898Z,64.32
2018-11-21T10:09:51.287Z,78.95
2018-11-21T10:12:27.203Z,65.75
2018-11-21T10:14:55.739Z,72.15
2018-11-21T10:17:24.401Z,81.45
2018-11-21T10:19:52.848Z,78.67
2018-11-21T10:22:21.620Z,80.28
2018-11-21T10:24:49.767Z,68.25
2018-11-21T10:27:18.562Z,70.37
2018-11-21T10:29:47.174Z,63.00
2018-11-21T10:32:15.269Z,85.80
2018-11-21T10:34:43.481Z,57.62
2018-11-21T10:37:11.526Z,80.67
2018-11-21T10:39:39.600Z,71.22
2018-11-21T10:42:07.733Z,66.17
2018-11-21T10:44:35.769Z,64.45
2018-11-21T10:47:04.148Z,64.80
2018-11-21T10:49:32.526Z,79.15
2018-11-21T10:52:00.630Z,76.17
2018-11-21T10:54:28.957Z,80.62
2018-11-21T10:56:57.154Z,73.62
2018-11-21T10:59:25.394Z,78.60
2018-11-21T11:02:11.269Z,66.67
2018-11-21T11:04:54.559Z,73.35
2018-11-21T11:07:41.098Z,57.48
2018-11-21T11:10:31.196Z,73.35
2018-11-21T11:13:21.840Z,77.15
2018-11-21T11:16:07.806Z,66.92
2018-11-21T11:18:55.327Z,73.90
2018-11-21T11:21:43.254Z,73.33
2018-11-21T11:24:30.129Z,76.72
2018-11-21T11:27:16.185Z,70.28
2018-11-21T11:30:26.490Z,62.70
2018-11-21T11:33:13.798Z,76.65
2018-11-21T11:36:13.577Z,70.08
2018-11-21T11:39:13.283Z,70.40
2018-11-21T11:42:01.177Z,87.27
2018-11-21T11:44:51.821Z,58.02
2018-11-21T11:47:33.861Z,72.50
2018-11-21T11:50:10.284Z,60.43
2018-11-21T11:52:51.700Z,71.12
2018-11-21T11:55:41.739Z,80.83
2018-11-21T11:58:24.387Z,79.87
2018-11-21T12:01:10.568Z,78.20
2018-11-21T12:03:57.873Z,71.72
2018-11-21T12:06:38.572Z,72.10
2018-11-21T12:09:26.182Z,74.20
2018-11-21T12:12:25.601Z,86.67
2018-11-21T12:15:24.454Z,59.25
2018-11-21T12:18:30.287Z,75.25
2018-11-21T12:21:16.784Z,69.80
2018-11-21T12:24:04.336Z,65.55
2018-11-21T12:26:51.922Z,70.55
2018-11-21T12:29:37.822Z,65.72
2018-11-21T12:32:24.261Z,54.77
2018-11-21T12:35:06.313Z,74.10
2018-11-21T12:38:09.303Z,66.17
2018-11-21T12:40:44.849Z,67.62
2018-11-21T12:43:34.231Z,66.87
2018-11-21T12:46:24.512Z,70.28
2018-11-21T12:49:05.806Z,79.03
2018-11-21T12:51:45.549Z,59.18
2018-11-21T12:54:28.852Z,63.48
2018-11-21T12:57:14.923Z,57.03
2018-11-21T13:00:07.773Z,72.70
2018-11-21T13:02:48.134Z,75.30
2018-11-21T13:05:24.802Z,70.95
2018-11-21T13:08:18.261Z,90.62
2018-11-21T13:11:02.185Z,73.12
2018-11-21T13:13:48.121Z,107.07
2018-11-21T13:16:38.076Z,79.65
2018-11-21T13:19:37.599Z,67.72
2018-11-21T13:22:21.505Z,84.07
2018-11-21T13:25:07.408Z,85.70
2018-11-21T13:27:53.470Z,89.55
2018-11-21T13:30:46.948Z,90.45
2018-11-21T13:33:37.044Z,80.85
2018-11-21T13:36:10.233Z,80.17
2018-11-21T13:38:56.398Z,67.87
2018-11-21T13:41:42.359Z,81.97
2018-11-21T13:44:28.292Z,76.33
2018-11-21T13:47:15.884Z,86.22
2018-11-21T13:50:02.278Z,96.05
2018-11-21T13:52:48.555Z,69.97
2018-11-21T13:55:16.902Z,83.40
2018-11-21T13:57:45.017Z,90.85
2018-11-21T14:00:13.100Z,81.78
2018-11-21T14:02:41.751Z,88.17
2018-11-21T14:05:11.009Z,81.02
2018-11-21T14:07:39.124Z,84.40
2018-11-21T14:10:09.462Z,77.58
2018-11-21T14:12:37.767Z,83.22
2018-11-21T14:15:07.365Z,63.23
2018-11-21T14:17:35.461Z,72.65
2018-11-21T14:20:03.964Z,75.85
2018-11-21T14:22:32.052Z,74.05
2018-11-21T14:25:00.193Z,72.15
2018-11-21T14:27:28.857Z,81.37
2018-11-21T14:29:57.203Z,99.95
2018-11-21T14:32:25.438Z,80.77
2018-11-21T14:34:53.843Z,72.27
2018-11-21T14:37:22.026Z,68.20
2018-11-21T14:39:50.541Z,88.05
2018-11-21T14:42:18.796Z,87.27
2018-11-21T14:44:46.968Z,75.03
2018-11-21T14:47:15.895Z,80.95
2018-11-21T14:49:47.229Z,58.50
2018-11-21T14:52:15.478Z,75.28
2018-11-21T14:54:43.606Z,80.95
2018-11-21T14:57:12.016Z,69.85
2018-11-21T14:59:40.123Z,81.17
2018-11-21T15:02:08.369Z,68.67
2018-11-21T15:04:36.429Z,66.10
2018-11-21T15:07:04.662Z,76.77
2018-11-21T15:09:33.060Z,61.33
2018-11-21T15:12:01.166Z,76.25
2018-11-21T15:14:29.490Z,66.77
2018-11-21T15:16:57.628Z,58.20
2018-11-21T15:19:25.765Z,58.75
2018-11-21T15:21:54.129Z,56.28
2018-11-21T15:24:22.252Z,61.08
2018-11-21T15:26:50.794Z,58.13
2018-11-21T15:29:19.045Z,54.33
2018-11-21T15:31:47.420Z,55.95
2018-11-21T15:34:15.524Z,51.05
2018-11-21T15:36:43.606Z,68.47
2018-11-21T15:39:12.355Z,63.80
2018-11-21T15:41:40.805Z,54.58
2018-11-21T15:44:08.995Z,52.78
2018-11-21T15:46:37.111Z,58.40
2018-11-21T15:49:05.479Z,60.12
2018-11-21T15:51:33.596Z,74.65
2018-11-21T15:54:02.130Z,62.05
2018-11-21T15:56:30.302Z,55.40
2018-11-21T15:58:58.809Z,38.98
2018-11-21T16:01:26.988Z,52.50
2018-11-21T16:03:55.398Z,56.45
2018-11-21T16:06:23.594Z,55.40
2018-11-21T16:08:51.691Z,64.85
2018-11-21T16:11:19.775Z,53.38
2018-11-21T16:13:47.902Z,67.87
2018-11-21T16:16:16.064Z,53.85
2018-11-21T16:18:44.467Z,49.58
2018-11-21T16:21:12.578Z,43.23
2018-11-21T16:23:40.721Z,52.65
2018-11-21T16:26:08.840Z,54.33
2018-11-21T16:28:36.933Z,58.58
2018-11-21T16:31:05.682Z,50.65
2018-11-21T16:33:34.273Z,47.67
2018-11-21T16:36:02.391Z,40.63
2018-11-21T16:38:30.514Z,42.78
2018-11-21T16:40:58.831Z,48.58
2018-11-21T16:43:26.951Z,49.18
2018-11-21T16:45:56.728Z,45.90
2018-11-21T16:48:25.286Z,43.17
2018-11-21T16:50:53.465Z,54.08
2018-11-21T16:53:21.947Z,48.02
2018-11-21T16:55:50.072Z,37.63
2018-11-21T16:58:18.208Z,47.10
2018-11-21T17:00:46.332Z,42.03
2018-11-21T17:03:14.409Z,41.48
2018-11-21T17:05:42.527Z,42.27
2018-11-21T17:08:10.907Z,55.03
2018-11-21T17:10:38.981Z,51.88
2018-11-21T17:13:07.102Z,52.53
2018-11-21T17:15:35.837Z,52.53
2018-11-21T17:18:03.918Z,50.85
2018-11-21T17:20:34.142Z,51.80
2018-11-21T17:23:02.563Z,45.33
2018-11-21T17:25:36.082Z,45.10
2018-11-21T17:28:04.515Z,50.48
2018-11-21T17:30:32.696Z,51.80
2018-11-21T17:33:00.826Z,47.43
2018-11-21T17:35:28.936Z,44.40
2018-11-21T17:38:01.931Z,46.13
2018-11-21T17:40:28.610Z,45.12
2018-11-21T17:42:57.314Z,43.28
2018-11-21T17:45:25.484Z,51.28
2018-11-21T17:47:53.946Z,46.60
2018-11-21T17:50:23.270Z,54.27
2018-11-21T17:52:52.817Z,43.33
2018-11-21T17:57:51.135Z,58.00
2018-11-21T18:00:20.629Z,46.68
2018-11-21T18:02:49.160Z,41.40
2018-11-21T18:05:18.953Z,52.65
2018-11-21T18:07:47.157Z,60.88
2018-11-21T18:10:16.748Z,37.75
2018-11-21T18:12:45.524Z,40.05
2018-11-21T18:15:14.531Z,47.93
2018-11-21T18:17:43.633Z,41.92
2018-11-21T18:20:12.547Z,54.40
2018-11-21T18:22:41.247Z,61.08
2018-11-21T18:25:11.843Z,49.75
2018-11-21T18:27:40.447Z,60.83
2018-11-21T18:30:14.094Z,54.58
2018-11-21T18:32:43.287Z,51.02
2018-11-21T18:35:13.111Z,43.38
2018-11-21T18:37:41.302Z,43.78
2018-11-21T18:40:11.869Z,51.48
2018-11-21T18:42:40.162Z,46.45
2018-11-21T18:45:10.972Z,43.17
2018-11-21T18:47:39.256Z,64.55
2018-11-21T18:50:11.140Z,41.05
2018-11-21T18:52:37.763Z,42.78
2018-11-21T18:55:08.839Z,45.20
2018-11-21T18:58:16.332Z,46.40
2018-11-21T19:00:47.486Z,45.75
2018-11-21T19:03:16.744Z,54.90
2018-11-21T19:05:43.852Z,53.90
2018-11-21T19:08:11.991Z,60.35
2018-11-21T19:10:40.513Z,54.65
2018-11-21T19:13:08.918Z,60.50
2018-11-21T19:15:37.419Z,56.42
2018-11-21T19:18:06.404Z,62.15
2018-11-21T19:20:35.320Z,54.33
2018-11-21T19:23:03.603Z,56.68
2018-11-21T19:25:32.029Z,65.65
2018-11-21T19:28:00.545Z,50.78
2018-11-21T19:30:28.786Z,62.48
2018-11-21T19:32:56.871Z,49.15
2018-11-21T19:35:25.399Z,54.05
2018-11-21T19:37:53.551Z,57.62
2018-11-21T19:40:21.778Z,57.15
2018-11-21T19:42:49.999Z,43.85
2018-11-21T19:45:18.208Z,57.50
2018-11-21T19:47:46.764Z,52.50
2018-11-21T19:50:16.418Z,66.67
2018-11-21T19:52:45.790Z,53.73
2018-11-21T19:55:16.027Z,62.88
2018-11-21T19:57:44.764Z,60.15
2018-11-21T20:00:15.853Z,57.62
2018-11-21T20:02:44.195Z,56.33
2018-11-21T20:05:12.610Z,62.80
2018-11-21T20:07:41.330Z,79.20
2018-11-21T20:10:10.562Z,70.30
2018-11-21T20:12:40.044Z,67.50
2018-11-21T20:15:10.169Z,56.90
2018-11-21T20:17:38.289Z,63.23
2018-11-21T20:20:09.093Z,84.75
2018-11-21T20:22:39.191Z,68.92
2018-11-21T20:25:09.348Z,64.90
2018-11-21T20:27:37.552Z,79.50
2018-11-21T20:30:09.301Z,68.05
2018-11-21T20:32:37.540Z,74.53
2018-11-21T20:35:07.945Z,55.35
2018-11-21T20:37:34.792Z,62.60
2018-11-21T20:40:03.296Z,53.48
2018-11-21T20:42:31.940Z,60.28
2018-11-21T20:45:00.444Z,61.25
2018-11-21T20:47:28.921Z,62.10
2018-11-21T20:49:57.294Z,73.70
2018-11-21T20:52:25.661Z,62.95
2018-11-21T20:54:54.155Z,69.03
2018-11-21T20:57:22.781Z,64.90
2018-11-21T20:59:51.360Z,65.72
2018-11-21T21:02:19.702Z,90.90
2018-11-21T21:04:48.073Z,79.22
2018-11-21T21:07:22.318Z,54.98
2018-11-21T21:09:45.865Z,73.42
2018-11-21T21:12:14.354Z,88.72
2018-11-21T21:14:42.862Z,88.37
2018-11-21T21:17:11.408Z,77.50
2018-11-21T21:19:39.727Z,84.47
2018-11-21T21:22:08.278Z,85.12
2018-11-21T21:24:36.850Z,62.80
2018-11-21T21:27:05.613Z,75.35
2018-11-21T21:29:33.747Z,76.05
2018-11-21T21:32:02.010Z,75.35
2018-11-21T21:34:30.245Z,68.20
2018-11-21T21:36:58.418Z,79.50
2018-11-21T21:39:26.613Z,71.37
2018-11-21T21:41:54.763Z,55.85
2018-11-21T21:44:22.982Z,68.50
2018-11-21T21:46:51.351Z,81.95
2018-11-21T21:49:19.851Z,75.70
2018-11-21T21:51:48.350Z,79.62
2018-11-21T21:54:16.733Z,59.88
2018-11-21T21:56:45.220Z,60.83
2018-11-21T21:59:13.781Z,60.33
2018-11-21T22:01:42.055Z,70.32
2018-11-21T22:04:10.248Z,74.05
2018-11-21T22:06:38.397Z,63.48
2018-11-21T22:09:09.392Z,72.42
